createdAt,value
2023-02-22T00:02:29.008Z,47.82
2023-02-22T00:06:31.055Z,48.26
2023-02-22T00:10:32.393Z,48.59
2023-02-22T00:14:33.776Z,48.14
2023-02-22T00:18:35.098Z,48.42
2023-02-22T00:22:36.524Z,47.87
2023-02-22T00:26:39.033Z,47.49
2023-02-22T00:30:46.207Z,48.23
2023-02-22T00:34:51.908Z,47.55
2023-02-22T00:38:53.347Z,47.39
2023-02-22T00:42:54.647Z,47.43
2023-02-22T00:46:55.914Z,47.42
2023-02-22T00:50:57.283Z,46.82
2023-02-22T00:54:59.957Z,46.72
2023-02-22T00:59:01.344Z,47.05
2023-02-22T01:03:04.806Z,47.33
2023-02-22T01:07:06.377Z,46.61
2023-02-22T01:11:07.682Z,47.15
2023-02-22T01:15:10.896Z,46.92
2023-02-22T01:19:12.730Z,47.21
2023-02-22T01:23:14.823Z,46.98
2023-02-22T01:27:17.722Z,47.67
2023-02-22T01:31:19.456Z,47.19
2023-02-22T01:35:24.129Z,47.57
2023-02-22T01:39:25.520Z,47.25
2023-02-22T01:43:30.952Z,47.16
2023-02-22T01:47:32.372Z,47.71
2023-02-22T01:51:38.886Z,48.25
2023-02-22T01:55:40.816Z,47.70
2023-02-22T01:59:47.460Z,47.93
2023-02-22T02:03:50.307Z,47.26
2023-02-22T02:07:52.861Z,47.92
2023-02-22T02:11:54.405Z,47.68
2023-02-22T02:15:56.371Z,47.80
2023-02-22T02:20:11.788Z,47.48
2023-02-22T02:24:39.563Z,48.05
2023-02-22T02:29:10.432Z,48.02
2023-02-22T02:33:20.607Z,48.30
2023-02-22T02:37:33.082Z,48.80
2023-02-22T02:41:39.756Z,48.12
2023-02-22T02:45:49.423Z,47.59
2023-02-22T02:50:21.239Z,48.34
2023-02-22T02:54:23.988Z,47.75
2023-02-22T02:58:26.200Z,47.96
2023-02-22T03:02:55.148Z,48.59
2023-02-22T03:07:06.895Z,48.81
2023-02-22T03:11:19.771Z,49.30
2023-02-22T03:15:46.210Z,48.32
2023-02-22T03:19:57.840Z,48.11
2023-02-22T03:24:12.903Z,47.74
2023-02-22T03:28:18.565Z,47.34
2023-02-22T03:32:25.399Z,46.95
2023-02-22T03:36:52.802Z,47.37
2023-02-22T03:40:59.223Z,47.69
2023-02-22T03:45:05.040Z,47.29
2023-02-22T03:49:14.229Z,47.38
2023-02-22T03:53:18.422Z,47.52
2023-02-22T03:57:28.432Z,47.40
2023-02-22T04:01:29.821Z,47.24
2023-02-22T04:05:31.205Z,47.21
2023-02-22T04:09:32.727Z,47.19
2023-02-22T04:13:36.405Z,47.21
2023-02-22T04:17:37.681Z,47.02
2023-02-22T04:21:39.111Z,47.40
2023-02-22T04:25:40.661Z,47.01
2023-02-22T04:29:42.049Z,47.17
2023-02-22T04:33:43.431Z,46.94
2023-02-22T04:37:44.775Z,46.52
2023-02-22T04:41:47.391Z,47.34
2023-02-22T04:45:48.946Z,47.14
2023-02-22T04:49:50.310Z,47.32
2023-02-22T04:53:51.632Z,47.72
2023-02-22T04:57:52.972Z,47.12
2023-02-22T05:01:54.743Z,46.83
2023-02-22T05:05:56.063Z,46.87
2023-02-22T05:09:57.418Z,46.95
2023-02-22T05:13:58.724Z,46.62
2023-02-22T05:18:00.277Z,46.91
2023-02-22T05:22:01.772Z,46.95
2023-02-22T05:26:03.237Z,46.92
2023-02-22T05:30:05.222Z,46.80
2023-02-22T05:34:06.540Z,47.03
2023-02-22T05:38:07.882Z,46.79
2023-02-22T05:42:09.178Z,47.60
2023-02-22T05:46:10.702Z,47.22
2023-02-22T05:50:13.000Z,46.70
2023-02-22T05:54:14.308Z,46.25
2023-02-22T05:58:15.843Z,46.10
2023-02-22T06:02:17.389Z,46.47
2023-02-22T06:06:22.259Z,46.29
2023-02-22T06:10:23.878Z,45.82
2023-02-22T06:14:25.278Z,45.94
2023-02-22T06:18:26.788Z,46.41
2023-02-22T06:22:28.396Z,46.19
2023-02-22T06:26:29.970Z,45.96
2023-02-22T06:30:31.405Z,45.58
2023-02-22T06:34:32.750Z,45.84
2023-02-22T06:38:34.049Z,45.72
2023-02-22T06:42:35.394Z,46.19
2023-02-22T06:46:38.013Z,45.54
2023-02-22T06:50:39.471Z,45.40
2023-02-22T06:54:40.782Z,45.44
2023-02-22T06:58:42.127Z,45.69
2023-02-22T07:02:43.444Z,45.95
2023-02-22T07:06:47.001Z,46.16
2023-02-22T07:10:50.425Z,46.76
2023-02-22T07:14:55.496Z,45.90
2023-02-22T07:18:56.828Z,45.17
2023-02-22T07:22:58.160Z,44.49
2023-02-22T07:27:01.275Z,43.79
2023-02-22T07:31:04.863Z,44.01
2023-02-22T07:35:08.934Z,44.15
2023-02-22T07:39:11.113Z,43.35
2023-02-22T07:43:21.538Z,43.79
2023-02-22T07:47:22.901Z,43.45
2023-02-22T07:51:24.283Z,42.83
2023-02-22T07:55:27.906Z,43.84
2023-02-22T07:59:29.261Z,42.67
2023-02-22T08:03:36.202Z,43.36
2023-02-22T08:07:38.021Z,42.92
2023-02-22T08:11:39.516Z,43.12
2023-02-22T08:15:49.331Z,43.29
2023-02-22T08:19:50.695Z,42.06
2023-02-22T08:23:54.234Z,41.03
2023-02-22T08:28:08.307Z,40.61
2023-02-22T08:32:09.872Z,40.84
2023-02-22T08:36:11.342Z,42.63
2023-02-22T08:40:14.966Z,40.97
2023-02-22T08:44:17.710Z,40.43
2023-02-22T08:48:19.882Z,41.57
2023-02-22T08:52:21.631Z,40.42
2023-02-22T08:56:23.152Z,40.34
2023-02-22T09:00:25.254Z,39.58
2023-02-22T09:04:26.625Z,39.66
2023-02-22T09:08:30.989Z,38.43
2023-02-22T09:12:32.425Z,38.14
2023-02-22T09:16:33.856Z,37.51
2023-02-22T09:20:36.242Z,37.32
2023-02-22T09:24:37.728Z,37.41
2023-02-22T09:28:39.296Z,37.57
2023-02-22T09:32:40.778Z,36.82
2023-02-22T09:36:43.881Z,36.13
2023-02-22T09:41:13.984Z,34.88
2023-02-22T09:45:23.851Z,36.84
2023-02-22T09:49:34.681Z,35.08
2023-02-22T09:53:42.239Z,35.59
2023-02-22T09:57:43.992Z,34.67
2023-02-22T10:01:49.850Z,32.02
2023-02-22T10:06:01.184Z,32.45
2023-02-22T10:10:06.375Z,30.74
2023-02-22T10:14:25.894Z,30.76
2023-02-22T10:18:43.972Z,30.50
2023-02-22T10:23:04.517Z,29.04
2023-02-22T10:27:17.243Z,30.70
2023-02-22T10:31:33.861Z,31.48
2023-02-22T10:35:41.195Z,31.15
2023-02-22T10:39:45.537Z,31.66
2023-02-22T10:43:46.947Z,30.43
2023-02-22T10:47:49.717Z,28.80
2023-02-22T10:52:02.172Z,29.60
2023-02-22T10:56:18.359Z,29.44
2023-02-22T11:00:29.425Z,27.48
2023-02-22T11:04:49.718Z,24.83
2023-02-22T11:08:52.095Z,27.43
2023-02-22T11:12:53.572Z,27.69
2023-02-22T11:16:57.169Z,26.10
2023-02-22T11:21:00.920Z,24.93
2023-02-22T11:25:07.370Z,24.50
2023-02-22T11:29:12.404Z,26.79
2023-02-22T11:33:23.401Z,27.62
2023-02-22T11:37:33.264Z,25.08
2023-02-22T11:41:34.915Z,24.85
2023-02-22T11:45:44.204Z,25.06
2023-02-22T11:49:53.442Z,24.93
2023-02-22T11:53:54.841Z,23.70
2023-02-22T11:58:05.912Z,24.17
2023-02-22T12:02:18.366Z,25.92
2023-02-22T12:06:40.976Z,24.71
2023-02-22T12:10:58.653Z,25.18
2023-02-22T12:15:14.871Z,25.94
2023-02-22T12:19:29.398Z,26.91
2023-02-22T12:23:44.878Z,28.83
2023-02-22T12:27:52.160Z,30.18
2023-02-22T12:32:18.327Z,28.13
2023-02-22T12:36:24.988Z,29.19
2023-02-22T12:40:37.351Z,28.26
2023-02-22T12:44:40.751Z,29.18
2023-02-22T12:49:03.085Z,29.57
2023-02-22T12:53:16.752Z,28.89
2023-02-22T12:57:42.324Z,29.68
2023-02-22T13:01:50.716Z,28.80
2023-02-22T13:06:05.516Z,29.49
2023-02-22T13:10:37.984Z,29.56
2023-02-22T13:14:47.312Z,28.94
2023-02-22T13:19:06.934Z,29.69
2023-02-22T13:23:17.211Z,30.18
2023-02-22T13:27:41.893Z,29.50
2023-02-22T13:31:59.296Z,29.15
2023-02-22T13:36:13.336Z,29.35
2023-02-22T13:40:39.346Z,28.85
2023-02-22T13:45:04.120Z,28.73
2023-02-22T13:49:33.217Z,28.69
2023-02-22T13:54:01.527Z,28.49
2023-02-22T13:58:11.760Z,28.96
2023-02-22T14:02:57.349Z,29.16
2023-02-22T14:07:01.238Z,29.57
2023-02-22T14:11:11.570Z,28.67
2023-02-22T14:15:28.277Z,28.59
2023-02-22T14:19:30.858Z,28.45
2023-02-22T14:23:40.219Z,28.86
2023-02-22T14:27:42.325Z,28.45
2023-02-22T14:31:43.732Z,29.07
2023-02-22T14:35:50.126Z,28.97
2023-02-22T14:40:25.687Z,28.47
2023-02-22T14:44:39.510Z,28.84
2023-02-22T14:48:42.830Z,28.81
2023-02-22T14:52:47.446Z,28.59
2023-02-22T14:57:14.575Z,28.18
2023-02-22T15:01:49.104Z,28.20
2023-02-22T15:05:54.498Z,28.08
2023-02-22T15:10:17.750Z,27.60
2023-02-22T15:14:26.685Z,27.94
2023-02-22T15:18:35.088Z,28.32
2023-02-22T15:22:37.272Z,28.35
2023-02-22T15:26:51.924Z,28.21
2023-02-22T15:31:25.119Z,29.30
2023-02-22T15:35:29.078Z,27.99
2023-02-22T15:39:34.311Z,28.60
2023-02-22T15:43:35.713Z,28.52
2023-02-22T15:47:39.971Z,28.97
2023-02-22T15:51:46.327Z,28.63
2023-02-22T15:55:54.962Z,29.04
2023-02-22T15:59:57.422Z,29.21
2023-02-22T16:03:59.594Z,29.21
2023-02-22T16:08:01.025Z,29.34
2023-02-22T16:12:10.721Z,29.06
2023-02-22T16:16:20.648Z,29.70
2023-02-22T16:20:22.080Z,29.93
2023-02-22T16:24:42.339Z,30.13
2023-02-22T16:28:53.044Z,30.61
2023-02-22T16:32:57.069Z,31.03
2023-02-22T16:36:59.115Z,30.99
2023-02-22T16:41:00.660Z,31.40
2023-02-22T16:45:02.067Z,31.25
2023-02-22T16:49:04.933Z,31.58
2023-02-22T16:53:06.627Z,31.58
2023-02-22T16:57:17.557Z,32.25
2023-02-22T17:01:20.003Z,32.38
2023-02-22T17:05:21.364Z,32.62
2023-02-22T17:09:22.737Z,32.44
2023-02-22T17:13:27.228Z,32.74
2023-02-22T17:17:28.794Z,33.28
2023-02-22T17:21:30.275Z,33.26
2023-02-22T17:25:39.000Z,32.92
2023-02-22T17:29:45.129Z,33.62
2023-02-22T17:33:46.616Z,33.57
2023-02-22T17:37:48.061Z,33.69
2023-02-22T17:41:54.989Z,34.01
2023-02-22T17:45:56.988Z,34.22
2023-02-22T17:49:58.399Z,34.11
2023-02-22T17:53:59.840Z,34.56
2023-02-22T17:58:01.205Z,34.57
2023-02-22T18:02:03.274Z,34.72
2023-02-22T18:06:05.931Z,35.05
2023-02-22T18:10:13.520Z,34.95
2023-02-22T18:14:14.962Z,35.02
2023-02-22T18:18:17.691Z,35.33
2023-02-22T18:22:18.978Z,35.29
2023-02-22T18:26:22.793Z,34.85
2023-02-22T18:30:24.326Z,35.31
2023-02-22T18:34:25.873Z,36.27
2023-02-22T18:38:27.209Z,35.26
2023-02-22T18:42:28.748Z,35.42
2023-02-22T18:46:30.537Z,35.73
2023-02-22T18:50:32.011Z,35.91
2023-02-22T18:54:33.354Z,35.76
2023-02-22T18:58:35.550Z,35.69
2023-02-22T19:02:37.107Z,35.66
2023-02-22T19:06:39.284Z,35.73
2023-02-22T19:10:40.620Z,36.48
2023-02-22T19:14:42.434Z,36.38
2023-02-22T19:18:44.123Z,36.56
2023-02-22T19:22:45.666Z,36.29
2023-02-22T19:26:57.162Z,36.60
2023-02-22T19:30:58.691Z,37.11
2023-02-22T19:35:02.093Z,37.06
2023-02-22T19:39:04.500Z,37.28
2023-02-22T19:43:06.467Z,37.79
2023-02-22T19:47:09.946Z,37.68
2023-02-22T19:51:14.380Z,37.33
2023-02-22T19:55:15.891Z,38.00
2023-02-22T19:59:22.737Z,38.33
2023-02-22T20:03:26.343Z,38.05
2023-02-22T20:07:27.729Z,37.82
2023-02-22T20:11:29.183Z,38.33
2023-02-22T20:15:30.704Z,38.50
2023-02-22T20:19:31.973Z,38.02
2023-02-22T20:23:33.342Z,38.61
2023-02-22T20:27:34.688Z,39.39
2023-02-22T20:31:37.517Z,39.02
2023-02-22T20:35:38.958Z,39.24
2023-02-22T20:39:41.056Z,39.80
2023-02-22T20:43:42.419Z,40.17
2023-02-22T20:47:43.904Z,40.09
2023-02-22T20:51:46.230Z,39.96
2023-02-22T20:55:52.081Z,41.32
2023-02-22T20:59:53.354Z,41.12
2023-02-22T21:04:00.386Z,42.28
2023-02-22T21:08:03.325Z,41.97
2023-02-22T21:12:11.319Z,41.31
2023-02-22T21:16:28.085Z,41.19
2023-02-22T21:20:29.746Z,41.06
2023-02-22T21:24:31.080Z,42.04
2023-02-22T21:28:50.485Z,41.98
2023-02-22T21:32:56.045Z,42.84
2023-02-22T21:36:57.369Z,42.34
2023-02-22T21:40:58.708Z,42.41
2023-02-22T21:45:00.044Z,43.15
2023-02-22T21:49:01.623Z,43.08
2023-02-22T21:53:03.482Z,43.24
2023-02-22T21:57:06.349Z,43.23
2023-02-22T22:01:07.853Z,43.48
2023-02-22T22:05:09.387Z,44.44
2023-02-22T22:09:18.185Z,44.12
2023-02-22T22:13:19.854Z,43.97
2023-02-22T22:17:21.794Z,44.78
2023-02-22T22:21:24.461Z,45.15
2023-02-22T22:25:28.174Z,45.41
2023-02-22T22:29:30.359Z,45.82
2023-02-22T22:33:31.801Z,45.62
2023-02-22T22:37:34.451Z,45.68
2023-02-22T22:41:35.804Z,46.01
2023-02-22T22:45:37.446Z,46.27
2023-02-22T22:49:42.585Z,46.16
2023-02-22T22:53:47.770Z,46.37
2023-02-22T22:57:49.103Z,46.50
2023-02-22T23:01:52.146Z,46.17
2023-02-22T23:05:54.219Z,46.39
2023-02-22T23:09:56.428Z,46.28
2023-02-22T23:13:57.828Z,46.38
2023-02-22T23:17:59.329Z,47.03
2023-02-22T23:22:01.453Z,46.83
2023-02-22T23:26:11.593Z,50.12
2023-02-22T23:30:14.921Z,49.21
2023-02-22T23:34:17.939Z,51.59
2023-02-22T23:38:19.302Z,49.78
2023-02-22T23:42:22.932Z,48.88
2023-02-22T23:46:26.889Z,48.67
2023-02-22T23:50:29.846Z,47.66
2023-02-22T23:54:36.288Z,48.72
2023-02-22T23:58:38.067Z,47.83
